Observation data for Northfield on 10/17/2019      Previous  Date       Current Mesonet Observations  Soil Data  Daily Summary Page  Observations in Plain Language
KNOR 170500Z 18009KT 11/M01 A3008 RMK A01 T01061005  RH  047%=      5-min Rain = 0
KNOR 170505Z 18009KT 11/M01 A3008 RMK A01 T01071006  RH  046%=      5-min Rain = 0
KNOR 170510Z 18008KT 11/M01 A3008 RMK A01 T01091006  RH  045%=      5-min Rain = 0
KNOR 170515Z 18008KT 11/M01 A3008 RMK A01 T01081007  RH  045%=      5-min Rain = 0
KNOR 170520Z 19008KT 11/M01 A3008 RMK A01 T01071007  RH  046%=      5-min Rain = 0
KNOR 170525Z 19007KT 11/M01 A3008 RMK A01 T01051007  RH  046%=      5-min Rain = 0
KNOR 170530Z 19007KT 10/M01 A3008 RMK A01 T01031007  RH  047%=      5-min Rain = 0
KNOR 170535Z 19007KT 10/M01 A3008 RMK A01 T01041007  RH  047%=      5-min Rain = 0
KNOR 170540Z 19007KT 10/M01 A3008 RMK A01 T01031007  RH  047%=      5-min Rain = 0
KNOR 170545Z 19007KT 10/M01 A3008 RMK A01 T01011006  RH  048%=      5-min Rain = 0
KNOR 170550Z 19007KT 10/M01 A3008 RMK A01 T01001006  RH  048%=      5-min Rain = 0
KNOR 170555Z 19006KT 10/M01 A3008 RMK A01 T01011007  RH  048%=      5-min Rain = 0
KNOR 170600Z 19006KT 10/M01 A3008 RMK A01 T00991007  RH  048%=      5-min Rain = 0
KNOR 170605Z 19006KT 10/M01 A3008 RMK A01 T01001007  RH  048%=      5-min Rain = 0
KNOR 170610Z 19007KT 10/M01 A3008 RMK A01 T01021007  RH  047%=      5-min Rain = 0
KNOR 170615Z 19008KT 10/M01 A3007 RMK A01 T01041008  RH  046%=      5-min Rain = 0
KNOR 170620Z 19007KT 11/M01 A3007 RMK A01 T01061008  RH  046%=      5-min Rain = 0
KNOR 170625Z 19007KT 11/M01 A3007 RMK A01 T01081009  RH  045%=      5-min Rain = 0
KNOR 170630Z 20006KT 10/M01 A3008 RMK A01 T01041009  RH  046%=      5-min Rain = 0
KNOR 170635Z 20006KT 11/M01 A3007 RMK A01 T01061009  RH  045%=      5-min Rain = 0
KNOR 170640Z 19006KT 11/M01 A3007 RMK A01 T01081010  RH  044%=      5-min Rain = 0
KNOR 170645Z 19006KT 11/M01 A3007 RMK A01 T01091010  RH  044%=      5-min Rain = 0
KNOR 170650Z 19006KT 11/M01 A3007 RMK A01 T01081010  RH  044%=      5-min Rain = 0
KNOR 170655Z 20006KT 11/M01 A3007 RMK A01 T01081010  RH  044%=      5-min Rain = 0
KNOR 170700Z 21005KT 11/M01 A3007 RMK A01 T01051010  RH  045%=      5-min Rain = 0
KNOR 170705Z 22005KT 11/M01 A3007 RMK A01 T01051010  RH  045%=      5-min Rain = 0
KNOR 170710Z 21004KT 10/M01 A3007 RMK A01 T01021010  RH  046%=      5-min Rain = 0
KNOR 170715Z 20005KT 10/M01 A3007 RMK A01 T00991010  RH  047%=      5-min Rain = 0
KNOR 170720Z 19005KT 10/M01 A3007 RMK A01 T00991010  RH  047%=      5-min Rain = 0
KNOR 170725Z 18006KT 10/M01 A3007 RMK A01 T00981010  RH  047%=      5-min Rain = 0
KNOR 170730Z 18007KT 10/M01 A3007 RMK A01 T00961010  RH  048%=      5-min Rain = 0
KNOR 170735Z 18008KT 10/M01 A3007 RMK A01 T00971009  RH  048%=      5-min Rain = 0
KNOR 170740Z 18008KT 10/M01 A3007 RMK A01 T01001009  RH  047%=      5-min Rain = 0
KNOR 170745Z 18008KT 10/M01 A3006 RMK A01 T01021010  RH  046%=      5-min Rain = 0
KNOR 170750Z 18008KT 10/M01 A3006 RMK A01 T01031010  RH  046%=      5-min Rain = 0
KNOR 170755Z 18008KT 11/M01 A3006 RMK A01 T01051010  RH  045%=      5-min Rain = 0
KNOR 170800Z 18008KT 11/M01 A3006 RMK A01 T01051010  RH  045%=      5-min Rain = 0
KNOR 170805Z 18009KT 10/M01 A3006 RMK A01 T01031010  RH  046%=      5-min Rain = 0
KNOR 170810Z 18008KT 10/M01 A3006 RMK A01 T01011010  RH  046%=      5-min Rain = 0
KNOR 170815Z 18007KT 10/M01 A3006 RMK A01 T01011011  RH  046%=      5-min Rain = 0
KNOR 170820Z 18006KT 10/M01 A3006 RMK A01 T00991010  RH  047%=      5-min Rain = 0
KNOR 170825Z 19006KT 10/M01 A3006 RMK A01 T00961010  RH  048%=      5-min Rain = 0
KNOR 170830Z 20006KT 09/M01 A3006 RMK A01 T00911010  RH  050%=      5-min Rain = 0
KNOR 170835Z 20007KT 09/M01 A3006 RMK A01 T00871008  RH  052%=      5-min Rain = 0
KNOR 170840Z 20006KT 09/M01 A3006 RMK A01 T00891008  RH  051%=      5-min Rain = 0
KNOR 170845Z 22004KT 09/M01 A3006 RMK A01 T00881010  RH  051%=      5-min Rain = 0
KNOR 170850Z 22005KT 08/M01 A3006 RMK A01 T00841010  RH  052%=      5-min Rain = 0
KNOR 170855Z 21006KT 08/M01 A3006 RMK A01 T00801010  RH  054%=      5-min Rain = 0
KNOR 170900Z 21006KT 08/M01 A3006 RMK A01 T00811010  RH  053%=      5-min Rain = 0
KNOR 170905Z 22005KT 08/M01 A3006 RMK A01 T00811010  RH  053%=      5-min Rain = 0
KNOR 170910Z 22003KT 08/M01 A3006 RMK A01 T00821011  RH  052%=      5-min Rain = 0
KNOR 170915Z 21003KT 08/M01 A3006 RMK A01 T00821011  RH  052%=      5-min Rain = 0
KNOR 170920Z 21004KT 08/M01 A3006 RMK A01 T00781011  RH  054%=      5-min Rain = 0
KNOR 170925Z 20006KT 08/M01 A3006 RMK A01 T00771011  RH  054%=      5-min Rain = 0
KNOR 170930Z 20006KT 08/M01 A3006 RMK A01 T00781011  RH  054%=      5-min Rain = 0
KNOR 170935Z 19007KT 08/M01 A3006 RMK A01 T00781011  RH  054%=      5-min Rain = 0
KNOR 170940Z 19007KT 08/M01 A3005 RMK A01 T00781011  RH  054%=      5-min Rain = 0
KNOR 170945Z 20007KT 08/M01 A3005 RMK A01 T00781011  RH  054%=      5-min Rain = 0
KNOR 170950Z 20006KT 08/M01 A3005 RMK A01 T00791011  RH  053%=      5-min Rain = 0
KNOR 170955Z 19007KT 08/M01 A3005 RMK A01 T00801011  RH  053%=      5-min Rain = 0
KNOR 171000Z 19008KT 08/M01 A3005 RMK A01 T00801011  RH  053%=      5-min Rain = 0
KNOR 171005Z 19008KT 08/M01 A3005 RMK A01 T00811012  RH  052%=      5-min Rain = 0
KNOR 171010Z 19007KT 08/M01 A3005 RMK A01 T00831012  RH  052%=      5-min Rain = 0
KNOR 171015Z 19006KT 09/M01 A3005 RMK A01 T00851013  RH  051%=      5-min Rain = 0
KNOR 171020Z 19006KT 08/M01 A3005 RMK A01 T00841013  RH  051%=      5-min Rain = 0
KNOR 171025Z 20006KT 08/M01 A3005 RMK A01 T00821013  RH  052%=      5-min Rain = 0
KNOR 171030Z 20006KT 08/M01 A3005 RMK A01 T00801013  RH  052%=      5-min Rain = 0
KNOR 171035Z 20005KT 08/M01 A3005 RMK A01 T00801014  RH  052%=      5-min Rain = 0
KNOR 171040Z 20005KT 08/M01 A3005 RMK A01 T00771014  RH  053%=      5-min Rain = 0
KNOR 171045Z 19005KT 08/M01 A3005 RMK A01 T00761014  RH  054%=      5-min Rain = 0
KNOR 171050Z 18006KT 07/M01 A3005 RMK A01 T00741013  RH  054%=      5-min Rain = 0
KNOR 171055Z 18006KT 08/M01 A3004 RMK A01 T00751013  RH  054%=      5-min Rain = 0
KNOR 171100Z 18007KT 07/M01 A3004 RMK A01 T00731013  RH  055%=      5-min Rain = 0
KNOR 171105Z 18007KT 08/M01 A3004 RMK A01 T00761013  RH  054%=      5-min Rain = 0
KNOR 171110Z 19007KT 08/M01 A3004 RMK A01 T00781013  RH  053%=      5-min Rain = 0
KNOR 171115Z 19007KT 08/M01 A3004 RMK A01 T00781013  RH  053%=      5-min Rain = 0
KNOR 171120Z 19007KT 08/M01 A3004 RMK A01 T00801013  RH  052%=      5-min Rain = 0
KNOR 171125Z 19006KT 08/M01 A3004 RMK A01 T00811013  RH  052%=      5-min Rain = 0
KNOR 171130Z 19006KT 08/M01 A3004 RMK A01 T00811013  RH  052%=      5-min Rain = 0
KNOR 171135Z 19006KT 08/M01 A3004 RMK A01 T00801013  RH  052%=      5-min Rain = 0
KNOR 171140Z 20006KT 08/M01 A3004 RMK A01 T00781013  RH  053%=      5-min Rain = 0
KNOR 171145Z 21006KT 08/M01 A3004 RMK A01 T00781012  RH  053%=      5-min Rain = 0
KNOR 171150Z 21006KT 08/M01 A3004 RMK A01 T00751012  RH  055%=      5-min Rain = 0
KNOR 171155Z 20006KT 07/M01 A3003 RMK A01 T00691013  RH  056%=      5-min Rain = 0
KNOR 171200Z 19007KT 06/M01 A3003 RMK A01 T00641012  RH  059%=      5-min Rain = 0
KNOR 171205Z 19006KT 06/M01 A3003 RMK A01 T00631012  RH  059%=      5-min Rain = 0
KNOR 171210Z 19007KT 06/M01 A3003 RMK A01 T00631012  RH  059%=      5-min Rain = 0
KNOR 171215Z 18007KT 07/M01 A3003 RMK A01 T00671011  RH  058%=      5-min Rain = 0
KNOR 171220Z 18007KT 07/M01 A3003 RMK A01 T00691011  RH  057%=      5-min Rain = 0
KNOR 171225Z 18008KT 07/M01 A3003 RMK A01 T00681011  RH  058%=      5-min Rain = 0
KNOR 171230Z 18007KT 07/M01 A3003 RMK A01 T00681010  RH  058%=      5-min Rain = 0
KNOR 171235Z 19005KT 06/M01 A3003 RMK A01 T00641011  RH  059%=      5-min Rain = 0
KNOR 171240Z 21005KT 06/M01 A3004 RMK A01 T00591011  RH  061%=      5-min Rain = 0
KNOR 171245Z 22005KT 06/M01 A3004 RMK A01 T00611011  RH  061%=      5-min Rain = 0
KNOR 171250Z 21005KT 06/M01 A3004 RMK A01 T00601011  RH  061%=      5-min Rain = 0
KNOR 171255Z 20006KT 06/M01 A3004 RMK A01 T00561011  RH  063%=      5-min Rain = 0
KNOR 171300Z 20005KT 06/M01 A3004 RMK A01 T00551010  RH  063%=      5-min Rain = 0
KNOR 171305Z 21005KT 05/M01 A3004 RMK A01 T00531011  RH  064%=      5-min Rain = 0
KNOR 171310Z 20006KT 06/M01 A3003 RMK A01 T00561010  RH  063%=      5-min Rain = 0
KNOR 171315Z 20007KT 06/M01 A3003 RMK A01 T00641009  RH  060%=      5-min Rain = 0
KNOR 171320Z 20007KT 07/M01 A3003 RMK A01 T00691008  RH  058%=      5-min Rain = 0
KNOR 171325Z 20006KT 08/M01 A3003 RMK A01 T00751008  RH  056%=      5-min Rain = 0
KNOR 171330Z 19007KT 08/M01 A3003 RMK A01 T00801007  RH  055%=      5-min Rain = 0
KNOR 171335Z 19006KT 09/M01 A3003 RMK A01 T00851005  RH  054%=      5-min Rain = 0
KNOR 171340Z 18006KT 09/M00 A3003 RMK A01 T00901004  RH  052%=      5-min Rain = 0
KNOR 171345Z 18007KT 10/M00 A3003 RMK A01 T00981003  RH  050%=      5-min Rain = 0
KNOR 171350Z 18007KT 11/M00 A3003 RMK A01 T01051003  RH  048%=      5-min Rain = 0
KNOR 171355Z 18007KT 11/M00 A3003 RMK A01 T01121003  RH  045%=      5-min Rain = 0
KNOR 171400Z 18008KT 12/M00 A3003 RMK A01 T01151004  RH  044%=      5-min Rain = 0
KNOR 171405Z 19008KT 12/M00 A3003 RMK A01 T01191004  RH  043%=      5-min Rain = 0
KNOR 171410Z 19008KT 12/M00 A3004 RMK A01 T01231003  RH  042%=      5-min Rain = 0
KNOR 171415Z 20007KT 13/M00 A3004 RMK A01 T01271002  RH  042%=      5-min Rain = 0
KNOR 171420Z 20006KT 13/00 A3004 RMK A01 T013100-0  RH  041%=      5-min Rain = 0
KNOR 171425Z 20006KT 13/00 A3004 RMK A01 T013400-0  RH  040%=      5-min Rain = 0
KNOR 171430Z 19007KT 14/00 A3004 RMK A01 T01400001  RH  039%=      5-min Rain = 0
KNOR 171435Z 20007KT 14/M00 A3003 RMK A01 T01401002  RH  038%=      5-min Rain = 0
KNOR 171440Z 21006KT 15/00 A3003 RMK A01 T014600-0  RH  037%=      5-min Rain = 0
KNOR 171445Z 21006KT 15/00 A3003 RMK A01 T014700-0  RH  037%=      5-min Rain = 0
KNOR 171450Z 22006KT 15/00 A3003 RMK A01 T01480001  RH  037%=      5-min Rain = 0
KNOR 171455Z 22006KT 15/00 A3003 RMK A01 T01520002  RH  036%=      5-min Rain = 0
KNOR 171500Z 22006KT 15/00 A3003 RMK A01 T01540003  RH  036%=      5-min Rain = 0
KNOR 171505Z 22006KT 16/00 A3003 RMK A01 T01590004  RH  035%=      5-min Rain = 0
KNOR 171510Z 22006KT 17/01 A3003 RMK A01 T01670006  RH  034%=      5-min Rain = 0
KNOR 171515Z 23006KT 17/01 A3003 RMK A01 T01720005  RH  033%=      5-min Rain = 0
KNOR 171520Z 24007KT 18/00 A3003 RMK A01 T01770004  RH  032%=      5-min Rain = 0
KNOR 171525Z 25008G13KT 18/00 A3003 RMK A01 T01810003  RH  030%=      5-min Rain = 0
KNOR 171530Z 24009KT 18/00 A3003 RMK A01 T01810000  RH  030%=      5-min Rain = 0
KNOR 171535Z 25007KT 19/00 A3002 RMK A01 T01860003  RH  029%=      5-min Rain = 0
KNOR 171540Z 24009KT 19/00 A3002 RMK A01 T01880002  RH  029%=      5-min Rain = 0
KNOR 171545Z 23009KT 19/00 A3002 RMK A01 T01890003  RH  029%=      5-min Rain = 0
KNOR 171550Z 23009KT 19/00 A3001 RMK A01 T01930002  RH  028%=      5-min Rain = 0
KNOR 171555Z 24007KT 20/00 A3001 RMK A01 T01970003  RH  028%=      5-min Rain = 0
KNOR 171600Z 25006KT 20/01 A3001 RMK A01 T01980005  RH  028%=      5-min Rain = 0
KNOR 171605Z 24006KT 20/01 A3001 RMK A01 T02000007  RH  028%=      5-min Rain = 0
KNOR 171610Z 26007KT 21/01 A3001 RMK A01 T02070008  RH  027%=      5-min Rain = 0
KNOR 171615Z 27007KT 20/01 A3001 RMK A01 T02040007  RH  027%=      5-min Rain = 0
KNOR 171620Z 26006KT 21/01 A3001 RMK A01 T02080007  RH  027%=      5-min Rain = 0
KNOR 171625Z 27004KT 21/01 A3001 RMK A01 T02070005  RH  026%=      5-min Rain = 0
KNOR 171630Z 24006KT 21/01 A3001 RMK A01 T02120009  RH  026%=      5-min Rain = 0
KNOR 171635Z 24004KT 21/01 A3001 RMK A01 T02130009  RH  026%=      5-min Rain = 0
KNOR 171640Z 25005KT 22/01 A3001 RMK A01 T02180012  RH  026%=      5-min Rain = 0
KNOR 171645Z 25005KT 22/01 A3001 RMK A01 T02220008  RH  025%=      5-min Rain = 0
KNOR 171650Z 24006G12KT 23/01 A30 RMK A01 T02250007  RH  024%=      5-min Rain = 0
KNOR 171655Z 22007KT 23/01 A30 RMK A01 T02340005  RH  022%=      5-min Rain = 0
KNOR 171700Z 22008G14KT 24/01 A30 RMK A01 T02430007  RH  021%=      5-min Rain = 0
KNOR 171705Z 23008KT 24/00 A30 RMK A01 T02400002  RH  021%=      5-min Rain = 0
KNOR 171710Z 21009G17KT 24/00 A2999 RMK A01 T02400001  RH  021%=      5-min Rain = 0
KNOR 171715Z 20011G16KT 24/00 A2999 RMK A01 T02440001  RH  020%=      5-min Rain = 0
KNOR 171720Z 21012G17KT 24/00 A2999 RMK A01 T02430001  RH  021%=      5-min Rain = 0
KNOR 171725Z 23009G14KT 24/00 A2999 RMK A01 T02440003  RH  021%=      5-min Rain = 0
KNOR 171730Z 20012KT 25/01 A2999 RMK A01 T02460005  RH  021%=      5-min Rain = 0
KNOR 171735Z 21011G16KT 24/01 A2998 RMK A01 T02440006  RH  021%=      5-min Rain = 0
KNOR 171740Z 21009G15KT 25/01 A2998 RMK A01 T02510009  RH  021%=      5-min Rain = 0
KNOR 171745Z 21010G17KT 25/01 A2998 RMK A01 T02510008  RH  021%=      5-min Rain = 0
KNOR 171750Z 21011KT 25/01 A2997 RMK A01 T02540014  RH  021%=      5-min Rain = 0
KNOR 171755Z 22011G16KT 26/02 A2997 RMK A01 T02560017  RH  021%=      5-min Rain = 0
KNOR 171800Z 20012G17KT 26/02 A2996 RMK A01 T02560016  RH  021%=      5-min Rain = 0
KNOR 171805Z 21012KT 26/02 A2996 RMK A01 T02560022  RH  022%=      5-min Rain = 0
KNOR 171810Z 19010G15KT 26/02 A2996 RMK A01 T02570017  RH  021%=      5-min Rain = 0
KNOR 171815Z 20007G16KT 26/02 A2996 RMK A01 T02570018  RH  021%=      5-min Rain = 0
KNOR 171820Z 22010G16KT 26/02 A2996 RMK A01 T02590023  RH  022%=      5-min Rain = 0
KNOR 171825Z 19011G19KT 26/02 A2995 RMK A01 T02630021  RH  021%=      5-min Rain = 0
KNOR 171830Z 19012G19KT 26/02 A2995 RMK A01 T02580023  RH  022%=      5-min Rain = 0
KNOR 171835Z 19011G17KT 26/02 A2995 RMK A01 T02580021  RH  022%=      5-min Rain = 0
KNOR 171840Z 19012G17KT 26/02 A2994 RMK A01 T02620023  RH  022%=      5-min Rain = 0
KNOR 171845Z 18011G17KT 27/03 A2994 RMK A01 T02650025  RH  021%=      5-min Rain = 0
KNOR 171850Z 19010G16KT 27/03 A2993 RMK A01 T02650027  RH  022%=      5-min Rain = 0
KNOR 171855Z 18012KT 27/03 A2993 RMK A01 T02690029  RH  022%=      5-min Rain = 0
KNOR 171900Z 17012G21KT 27/03 A2992 RMK A01 T02700032  RH  022%=      5-min Rain = 0
KNOR 171905Z 19014G21KT 27/03 A2992 RMK A01 T02670032  RH  022%=      5-min Rain = 0
KNOR 171910Z 18011G18KT 27/03 A2991 RMK A01 T02690033  RH  022%=      5-min Rain = 0
KNOR 171915Z 18012KT 27/03 A2991 RMK A01 T02690031  RH  022%=      5-min Rain = 0
KNOR 171920Z 18012G19KT 27/03 A2991 RMK A01 T02700033  RH  022%=      5-min Rain = 0
KNOR 171925Z 19009G16KT 28/04 A299 RMK A01 T02750036  RH  022%=      5-min Rain = 0
KNOR 171930Z 19012G17KT 28/03 A299 RMK A01 T02760034  RH  021%=      5-min Rain = 0
KNOR 171935Z 20012KT 27/03 A299 RMK A01 T02740034  RH  022%=      5-min Rain = 0
KNOR 171940Z 18011G16KT 28/03 A299 RMK A01 T02750034  RH  022%=      5-min Rain = 0
KNOR 171945Z 19013G19KT 28/04 A2989 RMK A01 T02780036  RH  022%=      5-min Rain = 0
KNOR 171950Z 17011G18KT 28/04 A2989 RMK A01 T02780037  RH  022%=      5-min Rain = 0
KNOR 171955Z 17013G18KT 28/04 A2989 RMK A01 T02770039  RH  022%=      5-min Rain = 0
KNOR 172000Z 17013G18KT 28/04 A2988 RMK A01 T02760041  RH  023%=      5-min Rain = 0
KNOR 172005Z 20014G20KT 28/04 A2988 RMK A01 T02780043  RH  023%=      5-min Rain = 0
KNOR 172010Z 21010G16KT 28/04 A2988 RMK A01 T02790044  RH  023%=      5-min Rain = 0
KNOR 172015Z 20012G17KT 28/04 A2988 RMK A01 T02830044  RH  022%=      5-min Rain = 0
KNOR 172020Z 18013G18KT 28/04 A2987 RMK A01 T02800043  RH  023%=      5-min Rain = 0
KNOR 172025Z 19013G20KT 28/04 A2987 RMK A01 T02810041  RH  022%=      5-min Rain = 0
KNOR 172030Z 19014G20KT 28/04 A2987 RMK A01 T02790036  RH  021%=      5-min Rain = 0
KNOR 172035Z 20014G19KT 28/04 A2987 RMK A01 T02800036  RH  021%=      5-min Rain = 0
KNOR 172040Z 19014G22KT 28/04 A2986 RMK A01 T02800036  RH  021%=      5-min Rain = 0
KNOR 172045Z 19013G20KT 28/03 A2986 RMK A01 T02800034  RH  021%=      5-min Rain = 0
KNOR 172050Z 19011G16KT 28/04 A2986 RMK A01 T02820037  RH  021%=      5-min Rain = 0
KNOR 172055Z 19011G17KT 28/04 A2986 RMK A01 T02830038  RH  021%=      5-min Rain = 0
KNOR 172100Z 20013G18KT 28/04 A2986 RMK A01 T02820035  RH  021%=      5-min Rain = 0
KNOR 172105Z 21015G20KT 28/03 A2986 RMK A01 T02810026  RH  020%=      5-min Rain = 0
KNOR 172110Z 21014G21KT 28/03 A2985 RMK A01 T02810026  RH  020%=      5-min Rain = 0
KNOR 172115Z 20012G19KT 28/03 A2986 RMK A01 T02840030  RH  020%=      5-min Rain = 0
KNOR 172120Z 20012G18KT 28/03 A2986 RMK A01 T02810033  RH  021%=      5-min Rain = 0
KNOR 172125Z 21013G19KT 28/03 A2985 RMK A01 T02810032  RH  021%=      5-min Rain = 0
KNOR 172130Z 19015G21KT 28/03 A2985 RMK A01 T02790030  RH  020%=      5-min Rain = 0
KNOR 172135Z 20013KT 28/03 A2985 RMK A01 T02790032  RH  021%=      5-min Rain = 0
KNOR 172140Z 19012G18KT 28/04 A2985 RMK A01 T02790035  RH  021%=      5-min Rain = 0
KNOR 172145Z 20014G19KT 28/03 A2985 RMK A01 T02800031  RH  021%=      5-min Rain = 0
KNOR 172150Z 18012G17KT 28/03 A2985 RMK A01 T02780032  RH  021%=      5-min Rain = 0
KNOR 172155Z 18013KT 28/04 A2984 RMK A01 T02780037  RH  022%=      5-min Rain = 0
KNOR 172200Z 19012G17KT 28/04 A2984 RMK A01 T02820039  RH  021%=      5-min Rain = 0
KNOR 172205Z 17013KT 28/04 A2984 RMK A01 T02800036  RH  021%=      5-min Rain = 0
KNOR 172210Z 18014KT 28/04 A2984 RMK A01 T02770038  RH  022%=      5-min Rain = 0
KNOR 172215Z 18013KT 28/04 A2984 RMK A01 T02770038  RH  022%=      5-min Rain = 0
KNOR 172220Z 18013G19KT 28/04 A2984 RMK A01 T02760040  RH  022%=      5-min Rain = 0
KNOR 172225Z 17015KT 28/04 A2984 RMK A01 T02750038  RH  022%=      5-min Rain = 0
KNOR 172230Z 18013G19KT 27/04 A2983 RMK A01 T02730043  RH  023%=      5-min Rain = 0
KNOR 172235Z 17014KT 27/04 A2983 RMK A01 T02730040  RH  023%=      5-min Rain = 0
KNOR 172240Z 18015G21KT 27/04 A2983 RMK A01 T02730039  RH  023%=      5-min Rain = 0
KNOR 172245Z 18013G18KT 27/04 A2983 RMK A01 T02720039  RH  023%=      5-min Rain = 0
KNOR 172250Z 19013G18KT 27/04 A2983 RMK A01 T02700036  RH  023%=      5-min Rain = 0
KNOR 172255Z 19012KT 27/04 A2983 RMK A01 T02690037  RH  023%=      5-min Rain = 0
KNOR 172300Z 18012KT 26/04 A2983 RMK A01 T02640040  RH  024%=      5-min Rain = 0
KNOR 172305Z 19012G18KT 26/04 A2983 RMK A01 T02600042  RH  025%=      5-min Rain = 0
KNOR 172310Z 18010G16KT 26/04 A2983 RMK A01 T02570044  RH  026%=      5-min Rain = 0
KNOR 172315Z 18010G15KT 26/04 A2983 RMK A01 T02570044  RH  026%=      5-min Rain = 0
KNOR 172320Z 18010KT 26/04 A2983 RMK A01 T02560043  RH  026%=      5-min Rain = 0
KNOR 172325Z 17011KT 26/04 A2983 RMK A01 T02560044  RH  026%=      5-min Rain = 0
KNOR 172330Z 18011KT 25/04 A2983 RMK A01 T02530043  RH  026%=      5-min Rain = 0
KNOR 172335Z 17010KT 25/05 A2983 RMK A01 T02510045  RH  027%=      5-min Rain = 0
KNOR 172340Z 16010KT 25/04 A2983 RMK A01 T02460044  RH  028%=      5-min Rain = 0
KNOR 172345Z 16009KT 24/04 A2983 RMK A01 T02410041  RH  028%=      5-min Rain = 0
KNOR 172350Z 16009KT 24/04 A2983 RMK A01 T02350040  RH  029%=      5-min Rain = 0
KNOR 172355Z 16010KT 23/04 A2983 RMK A01 T02300039  RH  029%=      5-min Rain = 0
KNOR 180000Z 15009KT 23/04 A2983 RMK A01 T02260038  RH  030%=      5-min Rain = 0
KNOR 180005Z 15009KT 22/04 A2982 RMK A01 T02220039  RH  031%=      5-min Rain = 0
KNOR 180010Z 15009KT 22/04 A2982 RMK A01 T02170040  RH  032%=      5-min Rain = 0
KNOR 180015Z 15010KT 22/04 A2982 RMK A01 T02160040  RH  032%=      5-min Rain = 0
KNOR 180020Z 14010KT 22/04 A2982 RMK A01 T02150038  RH  032%=      5-min Rain = 0
KNOR 180025Z 14011KT 21/04 A2982 RMK A01 T02140035  RH  031%=      5-min Rain = 0
KNOR 180030Z 14011KT 21/03 A2982 RMK A01 T02140032  RH  031%=      5-min Rain = 0
KNOR 180035Z 14011KT 21/03 A2982 RMK A01 T02120030  RH  031%=      5-min Rain = 0
KNOR 180040Z 14011KT 21/03 A2982 RMK A01 T02110029  RH  030%=      5-min Rain = 0
KNOR 180045Z 14012G17KT 21/03 A2982 RMK A01 T02090027  RH  030%=      5-min Rain = 0
KNOR 180050Z 14013G18KT 21/02 A2982 RMK A01 T02110023  RH  029%=      5-min Rain = 0
KNOR 180055Z 15013KT 21/02 A2982 RMK A01 T02100020  RH  029%=      5-min Rain = 0
KNOR 180100Z 14012KT 21/02 A2982 RMK A01 T02060019  RH  029%=      5-min Rain = 0
KNOR 180105Z 15013G18KT 21/01 A2982 RMK A01 T02050014  RH  028%=      5-min Rain = 0
KNOR 180110Z 15013KT 21/01 A2982 RMK A01 T02050009  RH  027%=      5-min Rain = 0
KNOR 180115Z 15013KT 20/01 A2982 RMK A01 T02040006  RH  027%=      5-min Rain = 0
KNOR 180120Z 15013G18KT 20/00 A2982 RMK A01 T02020004  RH  027%=      5-min Rain = 0
KNOR 180125Z 15014G19KT 20/00 A2982 RMK A01 T02010001  RH  026%=      5-min Rain = 0
KNOR 180130Z 15013G18KT 20/M00 A2982 RMK A01 T02001001  RH  026%=      5-min Rain = 0
KNOR 180135Z 15013KT 20/M00 A2982 RMK A01 T02001004  RH  026%=      5-min Rain = 0
KNOR 180140Z 15014G19KT 20/M01 A2982 RMK A01 T01991005  RH  026%=      5-min Rain = 0
KNOR 180145Z 15014KT 20/M01 A2982 RMK A01 T01991007  RH  025%=      5-min Rain = 0
KNOR 180150Z 15014G19KT 20/M01 A2982 RMK A01 T01991009  RH  025%=      5-min Rain = 0
KNOR 180155Z 15013G19KT 20/M01 A2982 RMK A01 T01971009  RH  025%=      5-min Rain = 0
KNOR 180200Z 15014KT 20/M01 A2982 RMK A01 T01971011  RH  025%=      5-min Rain = 0
KNOR 180205Z 15014KT 20/M01 A2982 RMK A01 T01971012  RH  025%=      5-min Rain = 0
KNOR 180210Z 16014KT 20/M01 A2982 RMK A01 T01961013  RH  025%=      5-min Rain = 0
KNOR 180215Z 16014KT 20/M02 A2982 RMK A01 T01971015  RH  024%=      5-min Rain = 0
KNOR 180220Z 16014G19KT 20/M02 A2982 RMK A01 T01961016  RH  024%=      5-min Rain = 0
KNOR 180225Z 16014G19KT 20/M02 A2982 RMK A01 T01961017  RH  024%=      5-min Rain = 0
KNOR 180230Z 16014G19KT 20/M02 A2982 RMK A01 T01961019  RH  024%=      5-min Rain = 0
KNOR 180235Z 16014G19KT 20/M02 A2983 RMK A01 T01951020  RH  023%=      5-min Rain = 0
KNOR 180240Z 16014G20KT 20/M02 A2983 RMK A01 T01951021  RH  023%=      5-min Rain = 0
KNOR 180245Z 16014G19KT 19/M02 A2982 RMK A01 T01931021  RH  023%=      5-min Rain = 0
KNOR 180250Z 16014KT 19/M02 A2982 RMK A01 T01921021  RH  024%=      5-min Rain = 0
KNOR 180255Z 16014G20KT 19/M02 A2983 RMK A01 T01931022  RH  024%=      5-min Rain = 0
KNOR 180300Z 17016G21KT 20/M02 A2982 RMK A01 T01951022  RH  023%=      5-min Rain = 0
KNOR 180305Z 17015G20KT 20/M02 A2983 RMK A01 T01951022  RH  023%=      5-min Rain = 0
KNOR 180310Z 17015KT 19/M02 A2982 RMK A01 T01941021  RH  023%=      5-min Rain = 0
KNOR 180315Z 17016G22KT 19/M02 A2983 RMK A01 T01941021  RH  024%=      5-min Rain = 0
KNOR 180320Z 17016G22KT 19/M02 A2983 RMK A01 T01931020  RH  024%=      5-min Rain = 0
KNOR 180325Z 17016KT 19/M02 A2983 RMK A01 T01921019  RH  024%=      5-min Rain = 0
KNOR 180330Z 16015G21KT 19/M02 A2983 RMK A01 T01891018  RH  025%=      5-min Rain = 0
KNOR 180335Z 16015KT 19/M02 A2983 RMK A01 T01861017  RH  025%=      5-min Rain = 0
KNOR 180340Z 17016KT 19/M02 A2983 RMK A01 T01851017  RH  026%=      5-min Rain = 0
KNOR 180345Z 17015G20KT 18/M02 A2984 RMK A01 T01841016  RH  026%=      5-min Rain = 0
KNOR 180350Z 17015KT 18/M02 A2984 RMK A01 T01811015  RH  026%=      5-min Rain = 0
KNOR 180355Z 17015G20KT 18/M02 A2984 RMK A01 T01791015  RH  027%=      5-min Rain = 0
KNOR 180400Z 16015G20KT 18/M01 A2983 RMK A01 T01771014  RH  028%=      5-min Rain = 0
KNOR 180405Z 16016G21KT 18/M01 A2983 RMK A01 T01771013  RH  028%=      5-min Rain = 0
KNOR 180410Z 17015G20KT 18/M01 A2983 RMK A01 T01761013  RH  028%=      5-min Rain = 0
KNOR 180415Z 17016KT 17/M01 A2983 RMK A01 T01741012  RH  028%=      5-min Rain = 0
KNOR 180420Z 16016KT 17/M01 A2983 RMK A01 T01731012  RH  029%=      5-min Rain = 0
KNOR 180425Z 16016G21KT 17/M01 A2983 RMK A01 T01711011  RH  029%=      5-min Rain = 0
KNOR 180430Z 16016G21KT 17/M01 A2982 RMK A01 T01691011  RH  030%=      5-min Rain = 0
KNOR 180435Z 16016KT 17/M01 A2982 RMK A01 T01681010  RH  030%=      5-min Rain = 0
KNOR 180440Z 17014KT 17/M01 A2982 RMK A01 T01681010  RH  030%=      5-min Rain = 0
KNOR 180445Z 17015KT 17/M01 A2982 RMK A01 T01671010  RH  030%=      5-min Rain = 0
KNOR 180450Z 17015KT 17/M01 A2982 RMK A01 T01661010  RH  031%=      5-min Rain = 0
KNOR 180455Z 17014KT 16/M01 A2983 RMK A01 T01641009  RH  031%=      5-min Rain = 0

Page generated in 0.015 seconds.